createdAt,value
2022-08-17T00:00:42.900Z,22.20
2022-08-17T00:03:14.969Z,22.30
2022-08-17T00:05:47.430Z,22.20
2022-08-17T00:08:20.138Z,22.20
2022-08-17T00:10:50.643Z,22.10
2022-08-17T00:13:23.960Z,22.10
2022-08-17T00:15:58.506Z,22.10
2022-08-17T00:19:02.066Z,22.10
2022-08-17T00:21:23.791Z,21.90
2022-08-17T00:23:55.080Z,22.00
2022-08-17T00:26:44.341Z,22.00
2022-08-17T00:29:19.319Z,22.10
2022-08-17T00:31:50.222Z,22.10
2022-08-17T00:34:19.043Z,22.20
2022-08-17T00:36:47.338Z,22.20
2022-08-17T00:39:15.694Z,22.10
2022-08-17T00:41:44.163Z,22.00
2022-08-17T00:44:12.738Z,21.90
2022-08-17T00:46:44.329Z,21.90
2022-08-17T00:49:19.056Z,22.00
2022-08-17T00:51:51.714Z,21.90
2022-08-17T00:54:25.949Z,21.80
2022-08-17T00:56:59.430Z,21.70
2022-08-17T00:59:34.279Z,21.70
2022-08-17T01:02:04.395Z,21.60
2022-08-17T01:04:34.535Z,21.60
2022-08-17T01:07:05.282Z,21.60
2022-08-17T01:09:34.178Z,21.50
2022-08-17T01:12:02.559Z,21.40
2022-08-17T01:14:30.822Z,21.40
2022-08-17T01:17:00.237Z,21.40
2022-08-17T01:19:35.785Z,21.40
2022-08-17T01:22:18.551Z,21.30
2022-08-17T01:24:53.449Z,21.40
2022-08-17T01:27:22.566Z,21.40
2022-08-17T01:29:57.860Z,21.40
2022-08-17T01:32:28.535Z,21.40
2022-08-17T01:35:00.641Z,21.40
2022-08-17T01:37:35.438Z,21.30
2022-08-17T01:40:12.637Z,21.30
2022-08-17T01:42:47.709Z,21.20
2022-08-17T01:45:23.820Z,21.20
2022-08-17T01:47:53.043Z,21.20
2022-08-17T01:50:26.649Z,21.20
2022-08-17T01:53:01.226Z,21.20
2022-08-17T01:55:35.949Z,21.10
2022-08-17T01:58:08.832Z,21.10
2022-08-17T02:00:59.425Z,21.10
2022-08-17T02:03:27.071Z,21.00
2022-08-17T02:05:55.670Z,21.00
2022-08-17T02:08:39.318Z,21.00
2022-08-17T02:11:18.575Z,21.00
2022-08-17T02:13:57.974Z,21.00
2022-08-17T02:16:37.517Z,21.00
2022-08-17T02:19:10.830Z,20.90
2022-08-17T02:21:41.103Z,20.90
2022-08-17T02:24:58.778Z,20.80
2022-08-17T02:27:08.169Z,20.70
2022-08-17T02:29:37.180Z,20.70
2022-08-17T02:32:06.531Z,20.60
2022-08-17T02:34:34.770Z,20.60
2022-08-17T02:37:02.998Z,20.70
2022-08-17T02:39:32.674Z,20.60
2022-08-17T02:42:05.462Z,20.60
2022-08-17T02:44:38.806Z,20.60
2022-08-17T02:47:10.384Z,20.60
2022-08-17T02:49:39.373Z,20.60
2022-08-17T02:52:09.113Z,20.70
2022-08-17T02:54:41.274Z,20.70
2022-08-17T02:57:11.563Z,20.70
2022-08-17T02:59:42.386Z,20.70
2022-08-17T03:02:15.136Z,20.60
2022-08-17T03:04:43.348Z,20.60
2022-08-17T03:07:11.779Z,20.50
2022-08-17T03:09:41.324Z,20.50
2022-08-17T03:12:14.988Z,20.50
2022-08-17T03:14:44.851Z,20.50
2022-08-17T03:17:17.023Z,20.50
2022-08-17T03:19:45.922Z,20.50
2022-08-17T03:22:35.662Z,20.50
2022-08-17T03:25:04.655Z,20.50
2022-08-17T03:27:39.753Z,20.50
2022-08-17T03:30:13.341Z,20.50
2022-08-17T03:32:44.516Z,20.50
2022-08-17T03:35:17.843Z,20.40
2022-08-17T03:37:47.602Z,20.40
2022-08-17T03:40:55.859Z,20.40
2022-08-17T03:43:22.089Z,20.50
2022-08-17T03:46:27.022Z,20.40
2022-08-17T03:49:15.781Z,20.50
2022-08-17T03:52:01.802Z,20.40
2022-08-17T03:54:48.067Z,20.40
2022-08-17T03:57:19.109Z,20.50
2022-08-17T03:59:48.055Z,20.50
2022-08-17T04:02:22.370Z,20.50
2022-08-17T04:04:52.296Z,20.40
2022-08-17T04:07:23.087Z,20.40
2022-08-17T04:09:52.017Z,20.40
2022-08-17T04:12:24.138Z,20.40
2022-08-17T04:14:55.003Z,20.30
2022-08-17T04:17:27.040Z,20.30
2022-08-17T04:19:56.974Z,20.30
2022-08-17T04:22:32.090Z,20.30
2022-08-17T04:25:10.120Z,20.40
2022-08-17T04:27:39.987Z,20.40
2022-08-17T04:30:10.539Z,20.40
2022-08-17T04:33:05.146Z,20.40
2022-08-17T04:35:39.142Z,20.30
2022-08-17T04:38:10.420Z,20.30
2022-08-17T04:40:56.329Z,20.30
2022-08-17T04:43:28.147Z,20.30
2022-08-17T04:46:00.185Z,20.20
2022-08-17T04:48:36.052Z,20.20
2022-08-17T04:51:11.400Z,20.20
2022-08-17T04:53:41.254Z,20.20
2022-08-17T04:56:15.916Z,20.20
2022-08-17T04:58:50.157Z,20.20
2022-08-17T05:01:23.241Z,20.30
2022-08-17T05:03:53.457Z,20.40
2022-08-17T05:06:23.343Z,20.40
2022-08-17T05:08:51.808Z,20.50
2022-08-17T05:11:20.419Z,20.60
2022-08-17T05:13:51.083Z,20.70
2022-08-17T05:16:21.573Z,20.80
2022-08-17T05:18:50.796Z,20.80
2022-08-17T05:21:21.166Z,20.90
2022-08-17T05:23:54.934Z,20.90
2022-08-17T05:26:26.698Z,21.10
2022-08-17T05:29:02.814Z,21.10
2022-08-17T05:31:32.317Z,21.20
2022-08-17T05:34:01.557Z,21.30
2022-08-17T05:36:41.786Z,21.30
2022-08-17T05:39:16.208Z,21.40
2022-08-17T05:41:48.711Z,21.50
2022-08-17T05:44:18.718Z,21.60
2022-08-17T05:46:53.246Z,21.70
2022-08-17T05:49:28.760Z,21.80
2022-08-17T05:52:23.916Z,21.90
2022-08-17T05:55:13.015Z,22.00
2022-08-17T05:58:00.015Z,22.20
2022-08-17T06:00:41.850Z,22.30
2022-08-17T06:03:31.640Z,22.30
2022-08-17T06:06:27.257Z,22.50
2022-08-17T06:09:31.536Z,22.60
2022-08-17T06:12:22.042Z,22.50
2022-08-17T06:15:10.688Z,22.60
2022-08-17T06:17:42.395Z,22.80
2022-08-17T06:20:15.283Z,22.90
2022-08-17T06:22:50.244Z,23.10
2022-08-17T06:25:27.243Z,23.20
2022-08-17T06:28:03.706Z,23.30
2022-08-17T06:31:00.103Z,23.40
2022-08-17T06:33:37.028Z,23.40
2022-08-17T06:36:42.788Z,23.40
2022-08-17T06:39:36.022Z,23.60
2022-08-17T06:43:02.570Z,23.70
2022-08-17T06:45:18.701Z,23.80
2022-08-17T06:47:57.421Z,23.80
2022-08-17T06:50:36.821Z,23.70
2022-08-17T06:53:15.022Z,23.80
2022-08-17T06:55:51.130Z,23.80
2022-08-17T06:58:29.577Z,23.90
2022-08-17T07:01:05.092Z,24.10
2022-08-17T07:03:37.663Z,24.20
2022-08-17T07:06:15.415Z,24.20
2022-08-17T07:08:56.775Z,24.40
2022-08-17T07:11:33.014Z,24.40
2022-08-17T07:14:19.911Z,24.30
2022-08-17T07:16:52.532Z,24.40
2022-08-17T07:19:24.612Z,24.50
2022-08-17T07:22:08.709Z,24.50
2022-08-17T07:24:50.875Z,24.50
2022-08-17T07:27:23.506Z,24.60
2022-08-17T07:29:57.050Z,24.70
2022-08-17T07:32:32.428Z,24.70
2022-08-17T07:35:11.442Z,24.80
2022-08-17T07:37:45.641Z,24.90
2022-08-17T07:40:26.943Z,25.00
2022-08-17T07:43:21.887Z,25.10
2022-08-17T07:46:29.915Z,25.20
2022-08-17T07:49:19.936Z,25.40
2022-08-17T07:52:47.613Z,25.50
2022-08-17T07:54:56.026Z,25.50
2022-08-17T07:57:34.293Z,25.50
2022-08-17T08:00:23.920Z,25.60
2022-08-17T08:03:16.526Z,25.60
2022-08-17T08:05:57.309Z,25.60
2022-08-17T08:08:38.451Z,25.70
2022-08-17T08:11:13.076Z,25.70
2022-08-17T08:13:45.663Z,25.70
2022-08-17T08:16:25.278Z,25.60
2022-08-17T08:18:58.139Z,25.70
2022-08-17T08:21:43.881Z,25.80
2022-08-17T08:24:46.263Z,25.90
2022-08-17T08:27:30.613Z,26.10
2022-08-17T08:30:09.306Z,26.20
2022-08-17T08:32:57.664Z,26.20
2022-08-17T08:35:33.727Z,26.30
2022-08-17T08:38:16.290Z,26.30
2022-08-17T08:41:16.192Z,26.50
2022-08-17T08:44:01.685Z,26.60
2022-08-17T08:46:41.180Z,26.70
2022-08-17T08:50:05.870Z,26.80
2022-08-17T08:53:04.096Z,27.10
2022-08-17T08:55:52.063Z,27.20
2022-08-17T08:58:32.147Z,27.50
2022-08-17T09:01:23.777Z,27.70
2022-08-17T09:04:23.684Z,27.90
2022-08-17T09:07:11.624Z,28.10
2022-08-17T09:09:59.357Z,28.00
2022-08-17T09:12:43.078Z,28.00
2022-08-17T09:15:18.975Z,28.20
2022-08-17T09:18:30.462Z,28.10
2022-08-17T09:21:02.184Z,28.20
2022-08-17T09:23:36.839Z,28.40
2022-08-17T09:26:15.535Z,28.50
2022-08-17T09:28:51.490Z,28.70
2022-08-17T09:31:31.288Z,28.80
2022-08-17T09:34:10.776Z,28.80
2022-08-17T09:36:50.846Z,28.90
2022-08-17T09:39:29.099Z,28.90
2022-08-17T09:42:07.750Z,29.00
2022-08-17T09:44:43.674Z,29.00
2022-08-17T09:47:23.399Z,28.90
2022-08-17T09:50:00.369Z,28.90
2022-08-17T09:52:31.482Z,28.90
2022-08-17T09:55:01.811Z,29.00
2022-08-17T09:57:50.113Z,29.10
2022-08-17T10:00:26.426Z,29.10
2022-08-17T10:03:28.228Z,29.10
2022-08-17T10:06:07.771Z,29.10
2022-08-17T10:08:51.860Z,29.20
2022-08-17T10:11:48.325Z,29.30
2022-08-17T10:14:38.013Z,29.40
2022-08-17T10:17:29.527Z,29.60
2022-08-17T10:20:10.314Z,29.60
2022-08-17T10:23:05.055Z,29.80
2022-08-17T10:26:09.741Z,29.80
2022-08-17T10:28:47.731Z,29.60
2022-08-17T10:31:34.862Z,29.60
2022-08-17T10:34:44.373Z,29.50
2022-08-17T10:37:47.713Z,29.60
2022-08-17T10:40:32.536Z,29.80
2022-08-17T10:43:17.151Z,29.80
2022-08-17T10:46:09.477Z,29.70
2022-08-17T10:49:33.033Z,29.60
2022-08-17T10:52:04.662Z,29.60
2022-08-17T10:54:46.692Z,29.60
2022-08-17T10:57:44.916Z,29.60
2022-08-17T11:01:04.603Z,29.70
2022-08-17T11:03:33.148Z,29.60
2022-08-17T11:06:15.007Z,29.50
2022-08-17T11:09:28.809Z,29.50
2022-08-17T11:12:25.218Z,29.40
2022-08-17T11:15:13.617Z,29.40
2022-08-17T11:18:03.807Z,29.40
2022-08-17T11:21:21.272Z,29.40
2022-08-17T11:24:19.207Z,29.50
2022-08-17T11:27:05.840Z,29.50
2022-08-17T11:29:53.082Z,29.50
2022-08-17T11:32:46.080Z,29.40
2022-08-17T11:35:39.840Z,29.50
2022-08-17T11:38:25.751Z,29.50
2022-08-17T11:41:19.438Z,29.60
2022-08-17T11:44:16.003Z,29.50
2022-08-17T11:47:27.727Z,29.50
2022-08-17T11:50:49.741Z,29.50
2022-08-17T11:54:21.626Z,29.50
2022-08-17T11:56:49.672Z,29.70
2022-08-17T12:00:05.678Z,29.80
2022-08-17T12:02:47.439Z,29.80
2022-08-17T12:05:34.287Z,29.80
2022-08-17T12:08:20.185Z,29.80
2022-08-17T12:11:09.073Z,29.90
2022-08-17T12:13:47.657Z,29.90
2022-08-17T12:16:18.202Z,29.90
2022-08-17T12:18:58.458Z,29.90
2022-08-17T12:21:44.979Z,29.90
2022-08-17T12:24:31.305Z,29.90
2022-08-17T12:27:02.684Z,30.00
2022-08-17T12:29:38.410Z,30.00
2022-08-17T12:32:16.528Z,30.00
2022-08-17T12:34:49.160Z,29.90
2022-08-17T12:37:23.010Z,29.90
2022-08-17T12:39:57.765Z,29.80
2022-08-17T12:42:31.131Z,29.70
2022-08-17T12:45:00.090Z,29.70
2022-08-17T12:47:30.361Z,29.70
2022-08-17T12:50:29.703Z,29.80
2022-08-17T12:53:02.331Z,29.80
2022-08-17T12:55:38.838Z,29.70
2022-08-17T12:58:14.655Z,29.60
2022-08-17T13:00:51.699Z,29.60
2022-08-17T13:03:24.074Z,29.50
2022-08-17T13:06:01.405Z,29.50
2022-08-17T13:08:35.493Z,29.50
2022-08-17T13:11:09.281Z,29.50
2022-08-17T13:13:40.415Z,29.50
2022-08-17T13:16:18.855Z,29.40
2022-08-17T13:18:50.298Z,29.30
2022-08-17T13:21:28.064Z,29.30
2022-08-17T13:24:01.417Z,29.30
2022-08-17T13:26:35.191Z,29.20
2022-08-17T13:29:08.605Z,29.20
2022-08-17T13:31:51.939Z,29.10
2022-08-17T13:34:41.137Z,29.10
2022-08-17T13:37:32.682Z,29.10
2022-08-17T13:40:29.035Z,28.90
2022-08-17T13:42:58.609Z,29.00
2022-08-17T13:45:51.376Z,28.90
2022-08-17T13:48:28.662Z,28.90
2022-08-17T13:51:27.471Z,28.80
2022-08-17T13:54:21.249Z,28.70
2022-08-17T13:57:03.557Z,28.70
2022-08-17T13:59:54.546Z,28.60
2022-08-17T14:02:28.628Z,28.60
2022-08-17T14:05:00.459Z,28.60
2022-08-17T14:07:34.921Z,28.60
2022-08-17T14:10:13.296Z,28.60
2022-08-17T14:12:44.298Z,28.60
2022-08-17T14:15:15.492Z,28.60
2022-08-17T14:17:43.814Z,28.60
2022-08-17T14:20:14.368Z,28.60
2022-08-17T14:22:48.204Z,28.60
2022-08-17T14:25:21.800Z,28.60
2022-08-17T14:27:53.570Z,28.60
2022-08-17T14:30:28.870Z,28.50
2022-08-17T14:33:01.995Z,28.50
2022-08-17T14:35:30.935Z,28.50
2022-08-17T14:37:59.207Z,28.50
2022-08-17T14:40:29.291Z,28.40
2022-08-17T14:42:58.820Z,28.40
2022-08-17T14:45:32.792Z,28.50
2022-08-17T14:48:07.506Z,28.60
2022-08-17T14:50:38.810Z,28.50
2022-08-17T14:53:12.098Z,28.50
2022-08-17T14:55:41.800Z,28.60
2022-08-17T14:58:10.324Z,28.50
2022-08-17T15:00:41.263Z,28.50
2022-08-17T15:03:11.455Z,28.50
2022-08-17T15:05:41.082Z,28.60
2022-08-17T15:08:09.397Z,28.60
2022-08-17T15:10:37.748Z,28.60
2022-08-17T15:13:17.196Z,28.60
2022-08-17T15:15:45.486Z,28.50
2022-08-17T15:18:13.757Z,28.40
2022-08-17T15:20:44.325Z,28.40
2022-08-17T15:23:15.559Z,28.40
2022-08-17T15:25:45.251Z,28.40
2022-08-17T15:28:15.466Z,28.40
2022-08-17T15:30:44.969Z,28.40
2022-08-17T15:33:19.598Z,28.30
2022-08-17T15:35:52.107Z,28.30
2022-08-17T15:38:21.986Z,28.30
2022-08-17T15:40:52.379Z,28.20
2022-08-17T15:43:27.995Z,28.10
2022-08-17T15:46:01.642Z,28.10
2022-08-17T15:48:41.945Z,28.30
2022-08-17T15:51:14.923Z,28.50
2022-08-17T15:53:46.080Z,28.70
2022-08-17T15:56:15.427Z,28.80
2022-08-17T15:58:47.957Z,28.80
2022-08-17T16:03:01.249Z,28.70
2022-08-17T16:04:14.925Z,28.70
2022-08-17T16:06:58.171Z,28.60
2022-08-17T16:09:26.580Z,28.60
2022-08-17T16:11:56.359Z,28.60
2022-08-17T16:14:35.065Z,28.40
2022-08-17T16:17:04.473Z,28.40
2022-08-17T16:19:34.253Z,28.30
2022-08-17T16:22:03.822Z,28.30
2022-08-17T16:24:32.690Z,28.20
2022-08-17T16:27:01.387Z,28.10
2022-08-17T16:29:31.212Z,28.00
2022-08-17T16:31:59.786Z,28.00
2022-08-17T16:34:28.080Z,28.00
2022-08-17T16:36:56.916Z,27.80
2022-08-17T16:39:30.765Z,27.80
2022-08-17T16:42:00.341Z,27.80
2022-08-17T16:44:32.054Z,27.90
2022-08-17T16:47:01.728Z,27.80
2022-08-17T16:49:36.902Z,27.80
2022-08-17T16:52:11.275Z,27.70
2022-08-17T16:54:43.228Z,27.70
2022-08-17T16:57:11.587Z,27.60
2022-08-17T16:59:44.898Z,27.60
2022-08-17T17:02:16.886Z,27.60
2022-08-17T17:04:54.190Z,27.70
2022-08-17T17:07:50.966Z,27.60
2022-08-17T17:10:25.112Z,27.60
2022-08-17T17:13:03.585Z,27.60
2022-08-17T17:15:53.513Z,27.70
2022-08-17T17:18:32.556Z,27.70
2022-08-17T17:21:02.140Z,27.70
2022-08-17T17:23:51.023Z,27.60
2022-08-17T17:26:49.916Z,27.60
2022-08-17T17:29:47.339Z,27.60
2022-08-17T17:32:29.121Z,27.40
2022-08-17T17:35:18.802Z,27.40
2022-08-17T17:37:48.589Z,27.20
2022-08-17T17:40:23.571Z,27.20
2022-08-17T17:42:56.050Z,27.00
2022-08-17T17:45:32.302Z,26.90
2022-08-17T17:48:02.005Z,26.90
2022-08-17T17:50:38.269Z,26.80
2022-08-17T17:53:13.983Z,26.70
2022-08-17T17:55:56.903Z,26.70
2022-08-17T17:58:39.683Z,26.70
2022-08-17T18:01:28.680Z,26.60
2022-08-17T18:04:23.535Z,26.50
2022-08-17T18:07:12.163Z,26.50
2022-08-17T18:10:02.206Z,26.30
2022-08-17T18:12:44.185Z,26.40
2022-08-17T18:15:31.401Z,26.40
2022-08-17T18:18:37.672Z,26.30
2022-08-17T18:21:16.747Z,26.30
2022-08-17T18:23:55.117Z,26.10
2022-08-17T18:26:46.559Z,26.10
2022-08-17T18:29:35.847Z,26.10
2022-08-17T18:32:34.462Z,26.20
2022-08-17T18:35:30.160Z,26.10
2022-08-17T18:38:21.780Z,26.10
2022-08-17T18:41:03.087Z,25.80
2022-08-17T18:43:44.063Z,25.70
2022-08-17T18:46:29.688Z,25.40
2022-08-17T18:49:02.351Z,25.00
2022-08-17T18:51:41.362Z,24.70
2022-08-17T18:54:21.644Z,24.50
2022-08-17T18:56:56.320Z,24.20
2022-08-17T18:59:35.229Z,24.00
2022-08-17T19:02:39.068Z,23.90
2022-08-17T19:05:29.011Z,23.80
2022-08-17T19:08:22.685Z,23.60
2022-08-17T19:10:56.565Z,23.30
2022-08-17T19:13:34.697Z,23.00
2022-08-17T19:16:14.800Z,23.00
2022-08-17T19:18:52.940Z,23.00
2022-08-17T19:21:28.039Z,22.80
2022-08-17T19:24:05.904Z,22.70
2022-08-17T19:26:54.010Z,22.40
2022-08-17T19:29:34.315Z,22.30
2022-08-17T19:32:03.491Z,22.10
2022-08-17T19:34:36.369Z,22.00
2022-08-17T19:37:15.572Z,22.00
2022-08-17T19:39:55.964Z,21.90
2022-08-17T19:42:41.233Z,21.80
2022-08-17T19:45:24.139Z,21.80
2022-08-17T19:48:04.940Z,21.80
2022-08-17T19:50:44.671Z,21.80
2022-08-17T19:53:54.111Z,21.90
2022-08-17T19:56:31.082Z,22.10
2022-08-17T19:59:12.556Z,22.10
2022-08-17T20:01:49.942Z,22.10
2022-08-17T20:04:34.841Z,22.00
2022-08-17T20:07:09.281Z,22.10
2022-08-17T20:09:40.911Z,22.10
2022-08-17T20:12:17.305Z,22.10
2022-08-17T20:14:55.850Z,22.20
2022-08-17T20:17:31.732Z,22.20
2022-08-17T20:20:27.163Z,22.10
2022-08-17T20:23:11.259Z,22.10
2022-08-17T20:25:48.086Z,22.10
2022-08-17T20:28:24.747Z,22.20
2022-08-17T20:30:55.094Z,22.20
2022-08-17T20:33:27.970Z,22.20
2022-08-17T20:36:18.381Z,22.10
2022-08-17T20:38:51.964Z,22.10
2022-08-17T20:41:22.779Z,22.10
2022-08-17T20:44:04.747Z,22.10
2022-08-17T20:47:02.262Z,22.20
2022-08-17T20:49:53.978Z,22.30
2022-08-17T20:52:52.942Z,22.40
2022-08-17T20:55:53.160Z,22.20
2022-08-17T20:58:57.056Z,22.20
2022-08-17T21:01:40.074Z,22.30
2022-08-17T21:05:00.184Z,22.30
2022-08-17T21:07:45.803Z,22.40
2022-08-17T21:10:19.376Z,22.40
2022-08-17T21:12:56.863Z,22.40
2022-08-17T21:15:37.446Z,22.40
2022-08-17T21:18:17.977Z,22.20
2022-08-17T21:21:17.909Z,22.00
2022-08-17T21:24:19.338Z,21.90
2022-08-17T21:27:00.636Z,21.70
2022-08-17T21:29:34.116Z,21.80
2022-08-17T21:32:24.663Z,21.80
2022-08-17T21:35:25.177Z,21.80
2022-08-17T21:38:03.407Z,21.90
2022-08-17T21:40:34.715Z,21.80
2022-08-17T21:43:23.991Z,21.80
2022-08-17T21:46:05.516Z,21.80
2022-08-17T21:48:44.222Z,21.70
2022-08-17T21:51:18.226Z,21.60
2022-08-17T21:53:52.081Z,21.60
2022-08-17T21:56:27.270Z,21.60
2022-08-17T21:59:00.643Z,21.70
2022-08-17T22:01:34.415Z,21.70
2022-08-17T22:04:18.769Z,21.60
2022-08-17T22:06:56.457Z,21.60
2022-08-17T22:09:31.552Z,21.70
2022-08-17T22:12:10.788Z,21.80
2022-08-17T22:14:53.095Z,21.70
2022-08-17T22:17:25.900Z,21.70
2022-08-17T22:19:59.814Z,21.70
2022-08-17T22:22:35.401Z,21.70
2022-08-17T22:25:08.475Z,21.70
2022-08-17T22:27:56.468Z,21.70
2022-08-17T22:30:32.633Z,21.60
2022-08-17T22:33:03.282Z,21.60
2022-08-17T22:35:42.560Z,21.70
2022-08-17T22:38:41.324Z,21.60
2022-08-17T22:41:51.307Z,21.60
2022-08-17T22:44:29.470Z,21.60
2022-08-17T22:47:11.304Z,21.60
2022-08-17T22:49:54.125Z,21.60
2022-08-17T22:52:35.677Z,21.60
2022-08-17T22:55:32.283Z,21.70
2022-08-17T22:58:20.899Z,21.70
2022-08-17T23:00:51.022Z,21.70
2022-08-17T23:03:22.498Z,21.70
2022-08-17T23:06:07.912Z,21.50
2022-08-17T23:08:43.995Z,21.50
2022-08-17T23:11:12.494Z,21.40
2022-08-17T23:13:42.177Z,21.40
2022-08-17T23:16:10.617Z,21.40
2022-08-17T23:18:38.822Z,21.40
2022-08-17T23:21:07.699Z,21.40
2022-08-17T23:23:37.050Z,21.40
2022-08-17T23:26:11.207Z,21.40
2022-08-17T23:28:41.032Z,21.40
2022-08-17T23:31:09.748Z,21.40
2022-08-17T23:33:41.201Z,21.30
2022-08-17T23:36:15.272Z,21.30
2022-08-17T23:38:44.503Z,21.30
2022-08-17T23:41:17.971Z,21.30
2022-08-17T23:43:53.096Z,21.30
2022-08-17T23:46:22.384Z,21.40
2022-08-17T23:48:53.467Z,21.40
2022-08-17T23:51:28.413Z,21.30
2022-08-17T23:54:07.923Z,21.30
2022-08-17T23:56:41.957Z,21.20
2022-08-17T23:59:12.104Z,21.10
